Aviation Digital Data Service (ADDS)

Output produced by METARs form (2238 UTC 23 March 2019)
found at http://www.aviationweather.gov/metar/data/
 
Forecast for: KLBB (LUBBOCK , TX, US)
Text: KLBB 231720Z 2318/2418 27015KT P6SM FEW250
Forecast period: 1800 UTC 23 March 2019 to 0100 UTC 24 March 2019
Forecast type: FROM: standard forecast or significant change
Winds: from the W (270 degrees) at 17 MPH (15 knots; 7.7 m/s)
Visibility: 6 or more miles 10+ km)
Ceiling: at least 12,000 feet AGL
Clouds: few clouds at 25000 feet AGL
Weather: no significant weather forecast for this period
Text: FM240100 23008KT P6SM SCT250
Forecast period: 0100 to 1600 UTC 24 March 2019
Forecast type: FROM: standard forecast or significant change
Winds: from the SW (230 degrees) at 9 MPH (8 knots; 4.1 m/s)
Visibility: 6 or more miles 10+ km)
Ceiling: at least 12,000 feet AGL
Clouds: scattered clouds at 25000 feet AGL
Weather: no significant weather forecast for this period
Text: FM241600 36011KT P6SM SCT250
Forecast period: 1600 to 1800 UTC 24 March 2019
Forecast type: FROM: standard forecast or significant change
Winds: from the N (360 degrees) at 13 MPH (11 knots; 5.7 m/s)
Visibility: 6 or more miles 10+ km)
Ceiling: at least 12,000 feet AGL
Clouds: scattered clouds at 25000 feet AGL
Weather: no significant weather forecast for this period